createdAt,value
2023-05-11T00:01:53.050Z,2.90
2023-05-11T00:04:19.944Z,3.00
2023-05-11T00:06:46.877Z,3.40
2023-05-11T00:09:13.806Z,3.70
2023-05-11T00:11:41.064Z,3.30
2023-05-11T00:14:08.208Z,3.60
2023-05-11T00:16:35.180Z,2.90
2023-05-11T00:19:02.135Z,3.20
2023-05-11T00:21:29.089Z,3.20
2023-05-11T00:23:56.245Z,3.30
2023-05-11T00:26:23.399Z,3.70
2023-05-11T00:28:51.461Z,3.70
2023-05-11T00:31:18.348Z,3.30
2023-05-11T00:33:45.601Z,3.00
2023-05-11T00:36:12.519Z,3.10
2023-05-11T00:38:42.850Z,3.40
2023-05-11T00:41:09.809Z,2.60
2023-05-11T00:43:36.642Z,3.20
2023-05-11T00:46:04.007Z,3.20
2023-05-11T00:48:30.949Z,3.40
2023-05-11T00:50:59.345Z,3.60
2023-05-11T00:53:26.394Z,3.00
2023-05-11T00:55:54.168Z,3.10
2023-05-11T00:58:21.230Z,3.20
2023-05-11T01:00:48.216Z,3.20
2023-05-11T01:03:16.320Z,3.10
2023-05-11T01:05:52.289Z,3.50
2023-05-11T01:08:24.881Z,3.10
2023-05-11T01:11:19.520Z,3.20
2023-05-11T01:13:50.896Z,3.40
2023-05-11T01:16:22.298Z,3.30
2023-05-11T01:19:02.362Z,3.30
2023-05-11T01:21:34.193Z,3.70
2023-05-11T01:24:30.929Z,3.40
2023-05-11T01:27:20.236Z,3.30
2023-05-11T01:29:58.789Z,3.40
2023-05-11T01:32:26.926Z,3.30
2023-05-11T01:35:08.970Z,3.40
2023-05-11T01:37:35.921Z,3.50
2023-05-11T01:40:10.679Z,3.50
2023-05-11T01:45:09.564Z,3.30
2023-05-11T01:47:36.505Z,3.40
2023-05-11T01:50:04.316Z,3.60
2023-05-11T01:52:32.169Z,3.60
2023-05-11T01:54:59.097Z,3.40
2023-05-11T01:57:26.156Z,3.60
2023-05-11T01:59:53.100Z,3.70
2023-05-11T02:02:20.418Z,4.00
2023-05-11T02:04:47.638Z,3.50
2023-05-11T02:07:14.566Z,3.60
2023-05-11T02:09:41.524Z,4.30
2023-05-11T02:12:09.007Z,3.70
2023-05-11T02:14:36.781Z,4.00
2023-05-11T02:17:04.319Z,3.40
2023-05-11T02:19:33.061Z,3.60
2023-05-11T02:22:00.295Z,4.40
2023-05-11T02:24:27.538Z,4.00
2023-05-11T02:26:54.389Z,3.80
2023-05-11T02:29:21.633Z,4.00
2023-05-11T02:31:49.652Z,3.40
2023-05-11T02:34:44.498Z,3.80
2023-05-11T02:37:15.751Z,3.50
2023-05-11T02:39:44.948Z,3.70
2023-05-11T02:42:18.106Z,4.00
2023-05-11T02:44:51.451Z,3.70
2023-05-11T02:47:18.395Z,3.60
2023-05-11T02:49:45.571Z,4.00
2023-05-11T02:52:12.808Z,3.60
2023-05-11T02:54:43.072Z,3.90
2023-05-11T02:57:10.080Z,3.80
2023-05-11T02:59:37.343Z,3.70
2023-05-11T03:02:04.531Z,3.90
2023-05-11T03:04:31.755Z,4.00
2023-05-11T03:06:58.708Z,4.00
2023-05-11T03:09:25.763Z,3.70
2023-05-11T03:11:52.814Z,4.30
2023-05-11T03:14:20.170Z,4.20
2023-05-11T03:16:48.161Z,4.00
2023-05-11T03:19:15.406Z,4.10
2023-05-11T03:21:42.666Z,3.90
2023-05-11T03:24:09.833Z,3.90
2023-05-11T03:26:36.874Z,4.20
2023-05-11T03:29:03.943Z,4.20
2023-05-11T03:31:30.865Z,4.00
2023-05-11T03:33:58.760Z,4.20
2023-05-11T03:36:26.724Z,4.10
2023-05-11T03:38:56.691Z,4.10
2023-05-11T03:41:26.063Z,3.80
2023-05-11T03:43:54.647Z,3.80
2023-05-11T03:46:22.850Z,4.70
2023-05-11T03:48:50.386Z,4.40
2023-05-11T03:51:20.137Z,4.40
2023-05-11T03:53:46.962Z,5.00
2023-05-11T03:56:14.010Z,4.80
2023-05-11T03:58:40.906Z,4.60
2023-05-11T04:01:10.972Z,4.80
2023-05-11T04:03:51.247Z,5.80
2023-05-11T04:06:18.694Z,4.10
2023-05-11T04:08:47.410Z,3.50
2023-05-11T04:11:14.340Z,4.20
2023-05-11T04:13:41.517Z,4.10
2023-05-11T04:16:08.957Z,4.40
2023-05-11T04:18:35.955Z,4.10
2023-05-11T04:21:02.956Z,5.10
2023-05-11T04:23:29.905Z,4.60
2023-05-11T04:25:58.686Z,4.20
2023-05-11T04:28:28.136Z,4.10
2023-05-11T04:30:55.989Z,3.90
2023-05-11T04:33:23.752Z,3.80
2023-05-11T04:35:52.006Z,4.30
2023-05-11T04:38:19.799Z,4.50
2023-05-11T04:40:48.080Z,5.40
2023-05-11T04:43:15.856Z,4.70
2023-05-11T04:45:48.167Z,6.40
2023-05-11T04:48:16.872Z,5.10
2023-05-11T04:50:45.110Z,5.40
2023-05-11T04:53:12.363Z,5.40
2023-05-11T04:55:39.784Z,4.50
2023-05-11T04:58:06.641Z,5.00
2023-05-11T05:00:33.764Z,5.70
2023-05-11T05:03:00.761Z,5.60
2023-05-11T05:05:27.721Z,5.80
2023-05-11T05:07:54.676Z,5.00
2023-05-11T05:10:22.136Z,4.50
2023-05-11T05:12:49.305Z,5.00
2023-05-11T05:15:16.246Z,5.10
2023-05-11T05:17:43.544Z,5.40
2023-05-11T05:20:11.090Z,5.40
2023-05-11T05:22:38.031Z,5.10
2023-05-11T05:25:05.576Z,4.90
2023-05-11T05:27:34.910Z,5.20
2023-05-11T05:30:05.221Z,5.10
2023-05-11T05:32:32.094Z,4.70
2023-05-11T05:34:59.462Z,4.20
2023-05-11T05:37:26.996Z,5.50
2023-05-11T05:39:54.168Z,5.20
2023-05-11T05:42:22.552Z,4.90
2023-05-11T05:44:50.308Z,4.50
2023-05-11T05:47:17.359Z,3.90
2023-05-11T05:49:44.764Z,3.40
2023-05-11T05:52:11.872Z,3.40
2023-05-11T05:54:40.989Z,3.30
2023-05-11T05:57:07.867Z,3.20
2023-05-11T05:59:35.283Z,3.70
2023-05-11T06:02:02.194Z,3.00
2023-05-11T06:04:29.784Z,3.90
2023-05-11T06:06:58.095Z,2.90
2023-05-11T06:09:25.033Z,3.00
2023-05-11T06:11:54.336Z,2.60
2023-05-11T06:14:22.790Z,2.60
2023-05-11T06:16:50.086Z,3.10
2023-05-11T06:19:16.992Z,3.70
2023-05-11T06:21:46.283Z,8.20
2023-05-11T06:24:13.496Z,3.70
2023-05-11T06:26:41.340Z,3.10
2023-05-11T06:29:08.280Z,3.20
2023-05-11T06:31:35.844Z,3.10
2023-05-11T06:34:04.169Z,3.00
2023-05-11T06:36:32.419Z,2.90
2023-05-11T06:38:59.709Z,2.90
2023-05-11T06:41:27.093Z,3.20
2023-05-11T06:43:53.926Z,3.00
2023-05-11T06:46:26.630Z,3.50
2023-05-11T06:48:53.615Z,3.60
2023-05-11T06:51:22.138Z,3.30
2023-05-11T06:53:48.974Z,3.00
2023-05-11T06:56:16.139Z,3.50
2023-05-11T06:58:45.945Z,3.20
2023-05-11T07:01:12.955Z,3.20
2023-05-11T07:03:39.931Z,2.60
2023-05-11T07:06:07.357Z,3.20
2023-05-11T07:08:34.481Z,2.60
2023-05-11T07:11:01.740Z,2.50
2023-05-11T07:13:28.791Z,2.60
2023-05-11T07:15:57.510Z,2.80
2023-05-11T07:18:24.992Z,2.90
2023-05-11T07:20:52.006Z,2.60
2023-05-11T07:23:19.251Z,3.30
2023-05-11T07:25:46.210Z,2.30
2023-05-11T07:28:13.167Z,2.40
2023-05-11T07:30:40.107Z,2.00
2023-05-11T07:33:07.170Z,1.80
2023-05-11T07:35:34.111Z,2.30
2023-05-11T07:38:01.063Z,2.40
2023-05-11T07:40:28.028Z,2.50
2023-05-11T07:42:55.070Z,2.30
2023-05-11T07:45:22.125Z,2.10
2023-05-11T07:47:49.020Z,2.40
2023-05-11T07:50:17.134Z,2.60
2023-05-11T07:52:44.302Z,2.40
2023-05-11T07:55:11.158Z,2.70
2023-05-11T07:57:38.107Z,4.00
2023-05-11T08:00:08.198Z,3.40
2023-05-11T08:02:38.949Z,3.20
2023-05-11T08:05:06.479Z,4.20
2023-05-11T08:07:33.392Z,3.90
2023-05-11T08:10:00.285Z,2.30
2023-05-11T08:12:27.587Z,3.00
2023-05-11T08:14:54.441Z,2.40
2023-05-11T08:17:21.834Z,2.60
2023-05-11T08:19:48.852Z,3.00
2023-05-11T08:22:15.816Z,2.50
2023-05-11T08:24:42.760Z,2.90
2023-05-11T08:27:09.708Z,2.60
2023-05-11T08:29:36.667Z,2.60
2023-05-11T08:32:03.736Z,3.00
2023-05-11T08:34:30.929Z,2.70
2023-05-11T08:37:00.272Z,2.70
2023-05-11T08:39:45.495Z,2.90
2023-05-11T08:42:17.654Z,2.00
2023-05-11T08:44:44.680Z,1.80
2023-05-11T08:47:22.648Z,2.30
2023-05-11T08:49:52.477Z,2.60
2023-05-11T08:52:19.646Z,2.00
2023-05-11T08:54:47.310Z,2.30
2023-05-11T08:57:14.680Z,2.70
2023-05-11T08:59:42.340Z,2.50
2023-05-11T09:02:11.158Z,2.50
2023-05-11T09:04:38.084Z,2.60
2023-05-11T09:07:05.040Z,2.30
2023-05-11T09:09:32.127Z,2.40
2023-05-11T09:11:59.067Z,3.10
2023-05-11T09:14:27.528Z,2.70
2023-05-11T09:16:54.746Z,2.10
2023-05-11T09:19:22.147Z,2.50
2023-05-11T09:21:49.131Z,2.40
2023-05-11T09:24:16.047Z,3.80
2023-05-11T09:26:43.022Z,6.70
2023-05-11T09:29:09.912Z,3.00
2023-05-11T09:31:40.176Z,3.90
2023-05-11T09:34:14.264Z,3.60
2023-05-11T09:36:42.482Z,3.00
2023-05-11T09:39:15.414Z,3.40
2023-05-11T09:41:43.290Z,2.50
2023-05-11T09:44:12.164Z,1.60
2023-05-11T09:46:40.143Z,2.20
2023-05-11T09:49:07.966Z,2.50
2023-05-11T09:51:37.034Z,2.00
2023-05-11T09:54:18.111Z,2.10
2023-05-11T09:56:47.273Z,1.90
2023-05-11T09:59:18.561Z,2.30
2023-05-11T10:01:45.508Z,2.10
2023-05-11T10:04:23.108Z,2.20
2023-05-11T10:06:53.732Z,2.10
2023-05-11T10:09:24.511Z,1.70
2023-05-11T10:11:51.500Z,3.10
2023-05-11T10:14:19.067Z,2.40
2023-05-11T10:16:46.630Z,1.70
2023-05-11T10:19:14.120Z,2.00
2023-05-11T10:21:41.134Z,2.10
2023-05-11T10:24:28.594Z,2.20
2023-05-11T10:26:56.294Z,2.10
2023-05-11T10:29:23.173Z,2.70
2023-05-11T10:31:51.760Z,2.00
2023-05-11T10:34:18.972Z,2.20
2023-05-11T10:36:46.427Z,2.10
2023-05-11T10:39:13.303Z,2.00
2023-05-11T10:41:56.458Z,2.20
2023-05-11T10:44:48.048Z,1.80
2023-05-11T10:47:37.764Z,1.70
2023-05-11T10:50:43.281Z,5.30
2023-05-11T10:53:16.659Z,2.10
2023-05-11T10:56:06.509Z,2.90
2023-05-11T10:58:48.454Z,2.30
2023-05-11T11:01:24.601Z,2.40
2023-05-11T11:03:58.534Z,2.00
2023-05-11T11:06:26.023Z,1.80
2023-05-11T11:09:00.462Z,2.20
2023-05-11T11:11:34.998Z,2.20
2023-05-11T11:14:03.836Z,3.00
2023-05-11T11:16:31.031Z,1.80
2023-05-11T11:19:32.476Z,2.00
2023-05-11T11:22:00.505Z,1.90
2023-05-11T11:24:39.688Z,2.20
2023-05-11T11:27:07.366Z,1.90
2023-05-11T11:29:35.268Z,2.10
2023-05-11T11:32:25.311Z,2.70
2023-05-11T11:34:52.685Z,1.90
2023-05-11T11:37:22.383Z,1.90
2023-05-11T11:39:50.541Z,2.50
2023-05-11T11:42:19.722Z,2.10
2023-05-11T11:44:46.705Z,2.40
2023-05-11T11:47:23.354Z,1.80
2023-05-11T11:49:54.021Z,2.50
2023-05-11T11:52:26.963Z,2.50
2023-05-11T11:54:57.847Z,2.80
2023-05-11T11:57:38.216Z,2.10
2023-05-11T12:00:11.670Z,2.10
2023-05-11T12:02:42.950Z,2.10
2023-05-11T12:05:12.806Z,2.50
2023-05-11T12:07:44.408Z,2.30
2023-05-11T12:10:13.327Z,2.10
2023-05-11T12:12:40.413Z,4.40
2023-05-11T12:15:08.147Z,2.10
2023-05-11T12:17:38.486Z,2.00
2023-05-11T12:20:15.453Z,2.10
2023-05-11T12:22:42.922Z,2.00
2023-05-11T12:25:11.545Z,1.90
2023-05-11T12:27:52.073Z,1.60
2023-05-11T12:30:23.416Z,2.20
2023-05-11T12:32:56.458Z,1.80
2023-05-11T12:35:33.962Z,2.20
2023-05-11T12:38:02.466Z,2.00
2023-05-11T12:40:29.545Z,2.00
2023-05-11T12:42:57.892Z,2.30
2023-05-11T12:45:25.655Z,2.30
2023-05-11T12:47:53.837Z,1.90
2023-05-11T12:50:21.136Z,2.00
2023-05-11T12:52:49.337Z,1.80
2023-05-11T12:55:28.452Z,1.80
2023-05-11T12:58:06.640Z,2.00
2023-05-11T13:00:33.712Z,2.80
2023-05-11T13:03:00.629Z,2.20
2023-05-11T13:05:29.511Z,2.30
2023-05-11T13:08:04.180Z,1.90
2023-05-11T13:12:57.961Z,1.70
2023-05-11T13:15:25.457Z,1.90
2023-05-11T13:17:57.272Z,1.90
2023-05-11T13:20:27.303Z,1.50
2023-05-11T13:23:03.595Z,1.80
2023-05-11T13:25:30.541Z,2.10
2023-05-11T13:27:57.406Z,2.90
2023-05-11T13:30:28.519Z,2.50
2023-05-11T13:32:55.479Z,1.90
2023-05-11T13:35:22.460Z,2.00
2023-05-11T13:37:49.292Z,2.30
2023-05-11T13:40:16.127Z,2.00
2023-05-11T13:42:43.599Z,1.80
2023-05-11T13:45:12.194Z,1.60
2023-05-11T13:47:39.121Z,1.80
2023-05-11T13:50:07.288Z,1.80
2023-05-11T13:52:34.284Z,1.70
2023-05-11T13:55:01.151Z,1.80
2023-05-11T13:57:28.005Z,1.90
2023-05-11T13:59:54.987Z,1.90
2023-05-11T14:02:22.417Z,2.30
2023-05-11T14:04:49.315Z,1.70
2023-05-11T14:07:16.232Z,2.10
2023-05-11T14:09:44.053Z,1.70
2023-05-11T14:12:11.015Z,2.00
2023-05-11T14:14:38.019Z,1.60
2023-05-11T14:17:06.124Z,1.40
2023-05-11T14:19:33.119Z,2.00
2023-05-11T14:22:00.658Z,2.00
2023-05-11T14:24:27.615Z,1.70
2023-05-11T14:26:54.832Z,1.70
2023-05-11T14:29:21.721Z,1.30
2023-05-11T14:31:48.858Z,1.60
2023-05-11T14:34:15.796Z,1.80
2023-05-11T14:36:42.673Z,1.80
2023-05-11T14:39:09.629Z,1.70
2023-05-11T14:41:36.986Z,2.00
2023-05-11T14:44:03.953Z,1.60
2023-05-11T14:46:31.119Z,2.10
2023-05-11T14:48:58.054Z,2.00
2023-05-11T14:51:24.931Z,2.00
2023-05-11T14:53:52.381Z,2.10
2023-05-11T14:56:19.257Z,1.80
2023-05-11T14:58:47.078Z,2.40
2023-05-11T15:01:13.961Z,1.80
2023-05-11T15:03:41.739Z,2.20
2023-05-11T15:06:08.750Z,1.70
2023-05-11T15:08:35.644Z,1.70
2023-05-11T15:11:02.497Z,2.20
2023-05-11T15:13:29.314Z,1.70
2023-05-11T15:15:57.119Z,1.60
2023-05-11T15:18:24.155Z,2.20
2023-05-11T15:20:51.072Z,1.90
2023-05-11T15:23:18.121Z,1.60
2023-05-11T15:25:45.417Z,1.60
2023-05-11T15:28:12.646Z,1.70
2023-05-11T15:30:41.747Z,1.90
2023-05-11T15:33:10.563Z,2.00
2023-05-11T15:35:38.025Z,2.00
2023-05-11T15:38:05.404Z,1.90
2023-05-11T15:40:32.737Z,1.90
2023-05-11T15:43:00.490Z,2.50
2023-05-11T15:45:27.705Z,2.70
2023-05-11T15:47:54.692Z,1.90
2023-05-11T15:50:22.377Z,1.90
2023-05-11T15:52:49.636Z,2.00
2023-05-11T15:55:16.633Z,2.20
2023-05-11T15:57:43.473Z,1.70
2023-05-11T16:00:11.559Z,2.10
2023-05-11T16:02:38.795Z,2.00
2023-05-11T16:05:06.972Z,2.00
2023-05-11T16:07:34.313Z,2.20
2023-05-11T16:10:01.568Z,1.90
2023-05-11T16:12:28.438Z,2.60
2023-05-11T16:14:55.287Z,1.80
2023-05-11T16:17:22.239Z,2.40
2023-05-11T16:19:49.258Z,2.50
2023-05-11T16:22:16.227Z,2.20
2023-05-11T16:24:43.171Z,2.60
2023-05-11T16:27:10.123Z,2.60
2023-05-11T16:29:36.956Z,2.10
2023-05-11T16:32:04.019Z,1.80
2023-05-11T16:34:30.909Z,2.10
2023-05-11T16:36:59.183Z,2.90
2023-05-11T16:39:27.223Z,2.30
2023-05-11T16:41:54.083Z,2.20
2023-05-11T16:44:21.354Z,2.80
2023-05-11T16:46:49.144Z,2.00
2023-05-11T16:49:16.693Z,2.60
2023-05-11T16:51:43.641Z,2.40
2023-05-11T16:54:10.684Z,2.60
2023-05-11T16:56:37.761Z,3.10
2023-05-11T16:59:04.674Z,2.10
2023-05-11T17:01:32.529Z,2.30
2023-05-11T17:03:59.468Z,2.70
2023-05-11T17:06:27.659Z,2.40
2023-05-11T17:08:54.768Z,2.60
2023-05-11T17:11:21.909Z,3.10
2023-05-11T17:13:48.723Z,2.30
2023-05-11T17:16:15.820Z,2.10
2023-05-11T17:18:42.941Z,3.00
2023-05-11T17:21:11.233Z,3.20
2023-05-11T17:23:39.625Z,3.10
2023-05-11T17:26:10.321Z,3.30
2023-05-11T17:28:37.776Z,2.50
2023-05-11T17:31:12.212Z,3.20
2023-05-11T17:33:39.621Z,2.90
2023-05-11T17:36:07.479Z,2.80
2023-05-11T17:38:34.419Z,3.10
2023-05-11T17:41:04.914Z,2.60
2023-05-11T17:43:32.829Z,2.70
2023-05-11T17:46:00.312Z,2.60
2023-05-11T17:48:27.469Z,3.20
2023-05-11T17:50:54.411Z,3.10
2023-05-11T17:53:21.350Z,3.50
2023-05-11T17:55:48.302Z,2.90
2023-05-11T17:58:15.253Z,3.00
2023-05-11T18:00:42.202Z,2.70
2023-05-11T18:03:09.198Z,3.10
2023-05-11T18:05:47.491Z,3.00
2023-05-11T18:08:15.846Z,2.70
2023-05-11T18:10:42.690Z,3.10
2023-05-11T18:13:09.645Z,2.60
2023-05-11T18:15:36.517Z,3.80
2023-05-11T18:18:03.653Z,3.60
2023-05-11T18:20:30.975Z,3.10
2023-05-11T18:22:58.392Z,3.40
2023-05-11T18:25:28.038Z,3.20
2023-05-11T18:27:55.353Z,3.10
2023-05-11T18:30:22.421Z,2.60
2023-05-11T18:32:49.385Z,3.10
2023-05-11T18:35:17.215Z,3.30
2023-05-11T18:37:44.390Z,2.80
2023-05-11T18:40:11.756Z,3.40
2023-05-11T18:42:38.710Z,2.40
2023-05-11T18:45:07.509Z,2.70
2023-05-11T18:47:37.479Z,2.40
2023-05-11T18:50:04.797Z,2.60
2023-05-11T18:52:31.718Z,2.40
2023-05-11T18:54:58.581Z,3.10
2023-05-11T18:57:25.523Z,3.00
2023-05-11T18:59:52.825Z,3.10
2023-05-11T19:02:19.705Z,2.80
2023-05-11T19:04:46.676Z,2.70
2023-05-11T19:07:13.567Z,2.70
2023-05-11T19:09:40.440Z,3.80
2023-05-11T19:12:07.862Z,3.90
2023-05-11T19:14:34.954Z,2.70
2023-05-11T19:17:02.523Z,2.70
2023-05-11T19:19:29.458Z,2.40
2023-05-11T19:24:38.151Z,3.00
2023-05-11T19:27:07.902Z,2.90
2023-05-11T19:45:59.278Z,3.60
2023-05-11T19:53:48.096Z,3.20
2023-05-11T19:56:15.114Z,3.70
2023-05-11T19:58:52.605Z,3.40
2023-05-11T20:01:20.373Z,3.30
2023-05-11T20:06:28.275Z,3.70
2023-05-11T20:08:57.024Z,4.10
2023-05-11T20:11:26.800Z,4.30
2023-05-11T20:13:53.965Z,5.40
2023-05-11T20:16:21.058Z,5.10
2023-05-11T20:18:48.382Z,5.20
2023-05-11T20:21:15.927Z,4.60
2023-05-11T20:23:45.282Z,4.80
2023-05-11T20:26:17.512Z,4.40
2023-05-11T20:28:44.734Z,4.00
2023-05-11T20:31:11.876Z,4.10
2023-05-11T20:36:09.711Z,4.10
2023-05-11T20:38:36.668Z,3.80
2023-05-11T20:41:03.731Z,4.20
2023-05-11T20:43:30.779Z,4.10
2023-05-11T20:46:04.749Z,4.60
2023-05-11T20:48:40.046Z,4.10
2023-05-11T20:51:08.646Z,3.50
2023-05-11T20:53:35.989Z,4.10
2023-05-11T20:56:03.339Z,3.70
2023-05-11T20:58:31.698Z,3.80
2023-05-11T21:00:58.797Z,4.10
2023-05-11T21:03:26.302Z,4.30
2023-05-11T21:05:53.634Z,4.10
2023-05-11T21:08:20.505Z,4.00
2023-05-11T21:10:47.731Z,4.40
2023-05-11T21:13:14.580Z,4.10
2023-05-11T21:15:41.442Z,4.00
2023-05-11T21:18:08.764Z,4.10
2023-05-11T21:20:36.323Z,3.70
2023-05-11T21:23:03.752Z,4.40
2023-05-11T21:25:31.167Z,3.90
2023-05-11T21:27:58.047Z,3.90
2023-05-11T21:30:25.218Z,4.20
2023-05-11T21:32:52.256Z,4.00
2023-05-11T21:35:19.361Z,4.40
2023-05-11T21:37:49.825Z,3.90
2023-05-11T21:40:18.179Z,4.30
2023-05-11T21:42:45.544Z,3.90
2023-05-11T21:45:12.639Z,5.00
2023-05-11T21:47:39.831Z,3.70
2023-05-11T21:50:08.831Z,3.90
2023-05-11T21:52:37.038Z,4.70
2023-05-11T21:55:05.011Z,4.30
2023-05-11T21:57:31.955Z,4.20
2023-05-11T21:59:59.352Z,4.00
2023-05-11T22:02:27.194Z,4.10
2023-05-11T22:04:54.164Z,4.00
2023-05-11T22:07:21.047Z,3.90
2023-05-11T22:09:48.157Z,4.30
2023-05-11T22:12:15.204Z,4.10
2023-05-11T22:14:42.159Z,3.60
2023-05-11T22:17:09.073Z,3.70
2023-05-11T22:19:36.259Z,4.00
2023-05-11T22:22:03.109Z,3.90
2023-05-11T22:24:29.977Z,4.30
2023-05-11T22:26:57.328Z,4.20
2023-05-11T22:29:24.274Z,4.00
2023-05-11T22:31:51.115Z,3.80
2023-05-11T22:34:19.840Z,4.20
2023-05-11T22:36:46.789Z,4.20
2023-05-11T22:39:14.090Z,4.30
2023-05-11T22:41:41.074Z,4.30
2023-05-11T22:44:08.640Z,4.60
2023-05-11T22:46:35.575Z,5.10
2023-05-11T22:49:02.675Z,4.30
2023-05-11T22:51:29.586Z,4.40
2023-05-11T22:53:56.426Z,4.10
2023-05-11T22:56:23.288Z,4.20
2023-05-11T22:58:50.217Z,4.40
2023-05-11T23:01:17.166Z,4.10
2023-05-11T23:03:44.242Z,4.40
2023-05-11T23:06:11.723Z,4.90
2023-05-11T23:08:39.481Z,4.70
2023-05-11T23:11:07.631Z,4.90
2023-05-11T23:13:35.057Z,4.50
2023-05-11T23:16:04.034Z,4.20
2023-05-11T23:18:31.614Z,3.90
2023-05-11T23:20:59.072Z,3.70
2023-05-11T23:23:26.400Z,4.20
2023-05-11T23:25:53.458Z,4.10
2023-05-11T23:28:20.627Z,4.00
2023-05-11T23:30:47.738Z,3.80
2023-05-11T23:33:15.275Z,4.50
2023-05-11T23:35:42.187Z,4.50
2023-05-11T23:38:09.130Z,4.50
2023-05-11T23:40:36.336Z,5.40
2023-05-11T23:43:03.559Z,4.80
2023-05-11T23:45:30.913Z,4.30
2023-05-11T23:47:57.852Z,4.60
2023-05-11T23:50:25.017Z,4.30
2023-05-11T23:52:51.968Z,4.50
2023-05-11T23:55:19.023Z,4.60
2023-05-11T23:57:46.280Z,3.90
